Time;durP1;ratioP1;P1;durP2;ratioP2;P2;SDS_P1;SDS_P2;PMS_P1;PMS_P2;Temp;Humidity;BMP_temperature;BMP_pressure;BME280_temperature;BME280_humidity;BME280_pressure;Samples;Min_cycle;Max_cycle;Signal;HPM_P1;HPM_P2
2022/03/25 00:02:11;;;;;;;15.40;8.60;;;;;;;3.46;76.84;101954.63;4956737;28;20031;-63
2022/03/25 00:04:36;;;;;;;12.80;7.80;;;;;;;3.43;77.26;101945.13;4974309;28;20038;-63
2022/03/25 00:07:02;;;;;;;12.23;8.87;;;;;;;3.35;77.28;101937.69;4975056;28;20129;-65
2022/03/25 00:09:31;;;;;;;13.98;8.75;;;;;;;3.35;77.16;101936.81;4975254;28;20578;-64
2022/03/25 00:11:57;;;;;;;16.10;8.33;;;;;;;3.22;77.14;101918.25;4974905;28;20062;-63
2022/03/25 00:14:22;;;;;;;14.07;9.33;;;;;;;3.39;77.29;101933.94;4974674;28;20490;-63
2022/03/25 00:16:48;;;;;;;14.17;7.37;;;;;;;3.49;76.70;101943.94;4973659;28;20274;-64
2022/03/25 00:19:14;;;;;;;13.67;9.83;;;;;;;3.51;77.02;101937.66;4974202;28;20054;-65
2022/03/25 00:21:39;;;;;;;19.57;9.43;;;;;;;3.54;77.19;101941.91;4972799;28;20031;-64
2022/03/25 00:24:05;;;;;;;13.17;8.10;;;;;;;3.50;76.95;101945.66;4973549;28;20133;-64
2022/03/25 00:26:31;;;;;;;10.57;7.10;;;;;;;3.45;77.14;101934.50;4973906;28;20113;-64
2022/03/25 00:28:59;;;;;;;16.20;8.37;;;;;;;3.40;77.16;101930.34;4956748;28;20388;-63
2022/03/25 00:31:24;;;;;;;11.20;7.90;;;;;;;3.43;77.45;101935.44;4973323;28;20053;-65
2022/03/25 00:33:50;;;;;;;14.20;9.10;;;;;;;3.41;77.05;101942.59;4956127;28;20353;-65
2022/03/25 00:36:21;;;;;;;12.33;8.37;;;;;;;3.45;77.21;101938.00;4955839;28;20486;-63
2022/03/25 00:38:47;;;;;;;15.43;9.00;;;;;;;3.46;76.65;101936.19;4973316;28;20038;-64
2022/03/25 00:41:13;;;;;;;12.23;7.20;;;;;;;3.47;76.36;101925.59;4973208;28;20278;-65
2022/03/25 00:43:42;;;;;;;11.37;7.63;;;;;;;3.51;76.17;101940.28;4973676;28;20266;-64
2022/03/25 00:46:07;;;;;;;8.70;7.38;;;;;;;3.39;76.35;101938.34;4974119;28;20042;-61
2022/03/25 00:48:33;;;;;;;13.50;7.83;;;;;;;3.35;76.68;101929.78;4974455;28;20490;-63
2022/03/25 00:50:58;;;;;;;9.37;7.13;;;;;;;3.35;76.84;101926.28;4973417;28;20039;-62
2022/03/25 00:53:25;;;;;;;9.17;6.47;;;;;;;3.38;76.95;101931.38;4973049;28;20062;-64
2022/03/25 00:55:52;;;;;;;11.13;7.27;;;;;;;3.42;76.59;101933.75;4972498;28;20030;-65
2022/03/25 00:58:25;;;;;;;11.50;7.60;;;;;;;3.41;76.64;101929.41;4973277;28;20745;-65
2022/03/25 01:00:51;;;;;;;12.23;7.80;;;;;;;3.32;76.35;101927.31;4939576;28;20384;-66
2022/03/25 01:03:16;;;;;;;11.33;7.63;;;;;;;3.25;76.94;101928.63;4972931;28;20786;-65
2022/03/25 01:05:42;;;;;;;10.00;7.23;;;;;;;3.18;77.07;101914.09;4972836;28;20070;-66
2022/03/25 01:08:09;;;;;;;9.70;7.07;;;;;;;3.24;77.39;101932.19;4973119;28;20073;-62
2022/03/25 01:10:36;;;;;;;10.57;7.70;;;;;;;3.29;76.92;101927.50;4973204;28;20042;-61
2022/03/25 01:13:03;;;;;;;10.70;8.20;;;;;;;3.24;77.12;101911.13;4974529;28;20278;-67
2022/03/25 01:15:29;;;;;;;11.70;7.80;;;;;;;3.15;76.96;101919.50;4972913;28;20274;-65
2022/03/25 01:17:54;;;;;;;10.40;7.40;;;;;;;3.08;77.62;101918.16;4955857;28;20266;-65
2022/03/25 01:20:20;;;;;;;12.73;8.53;;;;;;;3.10;77.73;101921.56;4976321;28;20254;-64
2022/03/25 01:22:45;;;;;;;13.53;8.03;;;;;;;3.05;77.63;101913.09;4977028;28;20043;-68
2022/03/25 01:25:11;;;;;;;10.10;7.67;;;;;;;2.93;77.24;101900.63;4977156;28;20133;-65
2022/03/25 01:27:40;;;;;;;10.70;7.27;;;;;;;2.98;78.08;101917.84;4977128;28;20104;-64
2022/03/25 01:30:06;;;;;;;11.13;8.63;;;;;;;3.08;77.65;101916.38;4977134;28;20046;-64
2022/03/25 01:32:32;;;;;;;15.77;8.83;;;;;;;3.04;77.63;101916.66;4976718;28;20344;-62
2022/03/25 01:34:58;;;;;;;12.97;7.27;;;;;;;2.98;78.10;101919.63;4977207;28;20350;-65
2022/03/25 01:37:25;;;;;;;11.10;8.10;;;;;;;2.88;77.77;101907.91;4977867;28;20038;-63
2022/03/25 01:39:51;;;;;;;12.33;8.50;;;;;;;2.91;78.49;101916.50;4978879;28;20268;-64
2022/03/25 01:42:17;;;;;;;14.93;8.10;;;;;;;2.93;77.87;101919.03;4967082;28;20309;-64
2022/03/25 01:44:43;;;;;;;10.00;8.07;;;;;;;2.98;77.94;101928.38;4986053;28;20270;-63
2022/03/25 01:47:15;;;;;;;11.80;7.80;;;;;;;2.90;77.40;101916.59;4960343;28;20840;-65
2022/03/25 01:49:40;;;;;;;10.90;8.00;;;;;;;2.98;77.90;101927.53;4977775;28;20070;-65
2022/03/25 01:52:07;;;;;;;11.37;7.83;;;;;;;3.01;77.50;101928.19;4987655;28;20349;-61
2022/03/25 01:54:34;;;;;;;12.57;8.37;;;;;;;2.98;77.53;101917.84;4983999;28;20043;-64
2022/03/25 01:57:01;;;;;;;13.70;8.17;;;;;;;3.03;77.86;101922.84;4976710;28;20377;-67
2022/03/25 01:59:28;;;;;;;11.13;8.03;;;;;;;2.97;77.23;101931.94;4961069;28;20289;-70
2022/03/25 02:01:57;;;;;;;14.07;8.20;;;;;;;2.97;77.69;101920.56;4976579;28;20828;-63
2022/03/25 02:04:24;;;;;;;12.67;8.73;;;;;;;2.82;78.39;101916.13;4976281;28;20274;-65
2022/03/25 02:06:50;;;;;;;12.97;8.30;;;;;;;2.65;78.71;101898.66;4976118;28;20634;-63
2022/03/25 02:09:16;;;;;;;11.10;8.60;;;;;;;2.82;78.35;101905.63;4976093;28;20266;-64
2022/03/25 02:12:08;;;;;;;11.00;9.50;;;;;;;2.80;78.02;101901.28;4976047;28;20321;-65
2022/03/25 02:14:33;;;;;;;16.73;9.67;;;;;;;2.79;78.56;101896.13;4977948;28;20277;-65
2022/03/25 02:16:59;;;;;;;12.70;8.40;;;;;;;2.67;78.28;101879.25;4975732;28;20266;-64
2022/03/25 02:19:25;;;;;;;10.77;8.50;;;;;;;2.78;78.24;101899.69;4975829;28;20093;-62
2022/03/25 02:21:51;;;;;;;12.87;9.07;;;;;;;2.76;78.22;101902.41;4976005;28;20043;-66
2022/03/25 02:24:17;;;;;;;14.30;9.13;;;;;;;2.73;78.47;101896.47;4975596;28;20403;-63
2022/03/25 02:26:43;;;;;;;15.33;9.57;;;;;;;2.69;78.46;101901.03;4975994;28;20039;-64
2022/03/25 02:29:13;;;;;;;15.80;7.93;;;;;;;2.74;78.66;101904.25;4976983;28;20459;-65
2022/03/25 02:31:39;;;;;;;14.77;8.80;;;;;;;2.78;78.30;101895.25;4958107;28;20356;-65
2022/03/25 02:34:06;;;;;;;12.77;9.90;;;;;;;2.88;78.51;101894.75;4975708;28;20633;-65
2022/03/25 02:36:39;;;;;;;15.37;9.33;;;;;;;2.80;78.25;101893.41;4975500;28;20498;-63
2022/03/25 02:39:07;;;;;;;16.50;9.07;;;;;;;2.74;78.51;101892.91;4975526;28;20286;-62
2022/03/25 02:41:32;;;;;;;14.87;8.33;;;;;;;2.69;78.73;101887.91;4975546;28;20286;-65
2022/03/25 02:43:59;;;;;;;16.27;9.83;;;;;;;2.74;78.34;101892.91;4976418;28;20266;-62
2022/03/25 02:46:25;;;;;;;14.53;10.57;;;;;;;2.68;78.53;101891.47;4975435;28;20046;-68
2022/03/25 02:48:50;;;;;;;16.10;10.40;;;;;;;2.68;78.44;101893.25;4958281;28;20353;-64
2022/03/25 02:51:15;;;;;;;15.07;9.70;;;;;;;2.55;78.56;101879.91;4975077;28;20046;-66
2022/03/25 02:53:41;;;;;;;13.20;9.87;;;;;;;2.48;79.02;101886.44;4975112;28;20035;-63
2022/03/25 02:56:06;;;;;;;15.23;9.50;;;;;;;2.44;79.45;101891.00;4975336;28;20039;-67
2022/03/25 02:58:32;;;;;;;13.93;10.13;;;;;;;2.44;79.80;101895.41;4975672;28;20047;-64
2022/03/25 03:00:58;;;;;;;15.33;9.17;;;;;;;2.46;79.47;101893.56;4980767;28;20039;-65
2022/03/25 03:03:23;;;;;;;15.80;9.10;;;;;;;2.44;79.20;101890.16;4981372;28;20038;-66
2022/03/25 03:05:48;;;;;;;15.80;9.83;;;;;;;2.45;79.75;101892.69;4979724;28;20039;-63
2022/03/25 03:08:14;;;;;;;14.53;10.67;;;;;;;2.38;79.89;101880.81;4957756;28;20098;-65
2022/03/25 03:10:41;;;;;;;18.37;11.03;;;;;;;2.35;80.10;101874.88;4975353;28;20038;-63
2022/03/25 03:13:07;;;;;;;13.37;10.40;;;;;;;2.30;80.44;101876.88;4957765;28;20054;-67
2022/03/25 03:15:33;;;;;;;17.43;10.50;;;;;;;2.35;80.33;101874.88;4975728;28;20766;-65
2022/03/25 03:17:59;;;;;;;13.37;10.30;;;;;;;2.40;80.43;101868.44;4975008;28;20038;-66
2022/03/25 03:20:25;;;;;;;14.67;9.93;;;;;;;2.45;79.96;101873.44;4943327;28;20035;-65
2022/03/25 03:22:51;;;;;;;16.77;10.73;;;;;;;2.39;80.25;101865.91;4981245;28;20045;-63
2022/03/25 03:25:17;;;;;;;15.03;10.13;;;;;;;2.43;80.33;101859.53;4982166;28;20262;-64
2022/03/25 03:27:43;;;;;;;13.23;9.93;;;;;;;2.35;80.29;101859.13;4978855;28;20293;-63
2022/03/25 03:30:11;;;;;;;13.13;10.13;;;;;;;2.39;80.45;101860.66;4982620;28;20509;-63
2022/03/25 03:32:37;;;;;;;19.30;11.77;;;;;;;2.38;80.33;101851.91;4975906;28;20043;-64
2022/03/25 03:35:03;;;;;;;16.97;11.10;;;;;;;2.35;80.61;101851.22;4974388;28;20285;-67
2022/03/25 03:37:29;;;;;;;15.60;10.43;;;;;;;2.37;80.99;101847.59;4974800;28;20286;-62
2022/03/25 03:39:55;;;;;;;15.33;11.67;;;;;;;2.36;80.82;101855.56;4974698;28;20286;-67
2022/03/25 03:42:21;;;;;;;20.13;12.17;;;;;;;2.35;80.76;101853.84;4973710;28;20042;-66
2022/03/25 03:44:46;;;;;;;19.03;12.17;;;;;;;2.40;80.66;101851.81;4975410;28;20266;-63
2022/03/25 03:47:14;;;;;;;19.23;11.70;;;;;;;2.36;80.78;101847.66;4974284;28;20089;-67
2022/03/25 03:49:40;;;;;;;17.33;12.10;;;;;;;2.40;80.96;101841.31;4974062;28;20046;-64
2022/03/25 03:52:06;;;;;;;21.13;14.20;;;;;;;2.46;80.41;101840.97;4974267;28;20347;-67
2022/03/25 03:54:32;;;;;;;18.77;13.10;;;;;;;2.45;80.92;101840.13;4974289;28;20267;-66
2022/03/25 03:56:59;;;;;;;22.63;13.63;;;;;;;2.39;80.94;101829.09;4974162;28;20279;-64
2022/03/25 03:59:25;;;;;;;18.60;12.43;;;;;;;2.45;80.66;101829.59;4957075;28;20304;-67
2022/03/25 04:01:50;;;;;;;21.43;14.10;;;;;;;2.50;80.24;101829.34;4974488;28;20277;-63
2022/03/25 04:04:17;;;;;;;24.87;13.30;;;;;;;2.36;80.23;101788.06;4973896;28;20281;-64
2022/03/25 04:06:44;;;;;;;20.10;13.53;;;;;;;2.67;80.07;101833.69;4974183;28;20041;-65
2022/03/25 04:09:09;;;;;;;21.73;14.40;;;;;;;2.67;79.56;101813.47;4974101;28;20321;-63
2022/03/25 04:11:35;;;;;;;22.20;15.03;;;;;;;2.62;79.62;101815.53;4974087;28;20302;-68
2022/03/25 04:14:01;;;;;;;27.93;16.37;;;;;;;2.56;79.67;101818.47;4973750;28;20050;-65
2022/03/25 04:16:28;;;;;;;23.80;14.43;;;;;;;2.55;80.01;101808.03;4957460;28;20757;-66
2022/03/25 04:18:54;;;;;;;25.63;15.60;;;;;;;2.63;80.44;101811.97;4972475;28;20042;-65
2022/03/25 04:21:19;;;;;;;22.90;16.13;;;;;;;2.73;79.37;101812.28;4956575;28;20262;-63
2022/03/25 04:23:45;;;;;;;23.27;15.33;;;;;;;2.72;79.23;101816.69;4973979;28;20125;-66
2022/03/25 04:26:10;;;;;;;19.97;14.43;;;;;;;2.72;79.57;101816.69;4973958;28;20030;-67
2022/03/25 04:28:44;;;;;;;26.03;16.00;;;;;;;2.47;79.25;101774.28;4973189;28;20047;-65
2022/03/25 04:31:10;;;;;;;24.23;15.00;;;;;;;2.72;79.45;101821.13;4973188;28;20058;-68
2022/03/25 04:33:37;;;;;;;27.27;16.50;;;;;;;2.73;79.65;101810.50;4955879;28;20289;-64
2022/03/25 04:36:03;;;;;;;22.00;15.20;;;;;;;2.70;78.87;101794.91;4972688;28;20271;-68
2022/03/25 04:38:29;;;;;;;27.20;16.30;;;;;;;2.71;79.17;101801.84;4955692;28;20281;-67
2022/03/25 04:40:56;;;;;;;27.40;16.33;;;;;;;2.74;79.09;101799.03;4955758;28;20273;-67
2022/03/25 04:43:29;;;;;;;23.93;17.43;;;;;;;2.69;79.49;101792.34;4973294;28;20272;-65
2022/03/25 04:45:58;;;;;;;28.17;19.47;;;;;;;2.72;79.20;101793.03;4973857;28;20274;-68
2022/03/25 04:48:23;;;;;;;26.42;17.88;;;;;;;2.75;79.14;101795.47;4972930;28;20278;-63
2022/03/25 04:50:49;;;;;;;33.10;22.03;;;;;;;2.73;79.23;101786.81;4972519;28;20034;-65
2022/03/25 04:53:14;;;;;;;27.03;19.10;;;;;;;2.72;79.30;101795.66;4972885;28;20042;-65
2022/03/25 04:55:40;;;;;;;29.33;20.27;;;;;;;2.74;79.69;101796.41;4972878;28;20031;-70
2022/03/25 04:58:06;;;;;;;35.97;21.20;;;;;;;2.72;79.60;101785.13;4972844;28;20038;-68
2022/03/25 05:00:32;;;;;;;33.07;19.80;;;;;;;2.80;80.07;101790.78;4955396;28;20046;-68
2022/03/25 05:02:58;;;;;;;30.50;20.40;;;;;;;2.90;79.54;101796.41;4975555;28;20391;-63
2022/03/25 05:05:25;;;;;;;31.17;19.93;;;;;;;2.91;79.50;101789.34;4980014;28;20043;-65
2022/03/25 05:07:50;;;;;;;31.60;20.07;;;;;;;2.90;79.54;101783.25;4979997;28;20645;-65
2022/03/25 05:10:16;;;;;;;29.53;20.47;;;;;;;2.87;79.83;101785.19;4956572;28;20274;-65
2022/03/25 05:12:43;;;;;;;34.73;21.60;;;;;;;2.80;79.99;101767.13;4973246;28;20046;-66
2022/03/25 05:15:16;;;;;;;34.77;22.90;;;;;;;2.92;79.93;101780.53;4974664;28;20046;-66
2022/03/25 05:17:50;;;;;;;36.92;21.77;;;;;;;2.95;80.30;101777.72;4956024;28;20278;-65
2022/03/25 05:20:17;;;;;;;33.67;20.87;;;;;;;3.00;80.45;101778.28;4955300;28;20031;-65
2022/03/25 05:22:43;;;;;;;35.23;22.23;;;;;;;3.08;80.64;101770.78;4974668;28;20339;-68
2022/03/25 05:25:09;;;;;;;32.53;19.77;;;;;;;3.28;79.97;101777.53;4972778;28;20871;-63
2022/03/25 05:27:52;;;;;;;30.50;22.77;;;;;;;3.37;79.53;101783.06;4972223;28;20521;-66
2022/03/25 05:30:24;;;;;;;37.53;22.90;;;;;;;3.36;79.49;101776.13;4939417;28;20169;-69
2022/03/25 05:32:50;;;;;;;35.00;22.80;;;;;;;3.40;79.20;101772.34;4973353;28;20813;-64
2022/03/25 05:35:17;;;;;;;42.43;21.67;;;;;;;3.46;78.92;101771.13;4974046;28;20258;-64
2022/03/25 05:37:43;;;;;;;38.73;24.40;;;;;;;3.50;79.61;101763.94;4974121;28;20263;-70
2022/03/25 05:40:09;;;;;;;41.20;26.50;;;;;;;3.45;79.23;101764.19;4973518;28;20262;-66
2022/03/25 05:42:35;;;;;;;43.53;26.93;;;;;;;3.46;79.49;101767.66;4971770;28;20046;-64
2022/03/25 05:45:02;;;;;;;41.67;25.33;;;;;;;3.42;79.84;101767.84;4972584;28;20278;-63
2022/03/25 05:47:28;;;;;;;40.73;25.17;;;;;;;3.39;79.85;101760.13;4973481;28;20031;-63
2022/03/25 05:49:54;;;;;;;37.33;24.20;;;;;;;3.48;80.27;101763.16;4971735;28;20269;-66
2022/03/25 05:52:25;;;;;;;41.43;24.07;;;;;;;3.61;80.03;101756.22;4971955;28;20065;-64
2022/03/25 05:54:52;;;;;;;44.80;24.70;;;;;;;3.69;79.02;101761.84;4971516;28;20101;-66
2022/03/25 05:57:17;;;;;;;40.53;24.40;;;;;;;3.66;78.84;101736.53;4954757;28;20748;-63
2022/03/25 05:59:43;;;;;;;44.93;26.23;;;;;;;3.86;78.73;101747.66;4971503;28;20301;-65
2022/03/25 06:02:09;;;;;;;44.37;26.27;;;;;;;3.85;78.54;101744.16;4973480;28;20045;-65
2022/03/25 06:04:38;;;;;;;47.70;26.43;;;;;;;3.82;78.94;101744.34;4971470;28;20262;-64
2022/03/25 06:07:03;;;;;;;40.00;25.92;;;;;;;3.83;78.98;101743.41;4975933;28;20031;-63
2022/03/25 06:09:29;;;;;;;42.73;28.47;;;;;;;3.85;79.45;101745.94;4957593;28;20031;-64
2022/03/25 06:11:56;;;;;;;47.27;28.47;;;;;;;3.86;79.17;101743.22;4975795;28;20057;-65
2022/03/25 06:14:24;;;;;;;42.92;26.02;;;;;;;4.04;79.27;101755.22;4941607;28;20177;-66
2022/03/25 06:16:50;;;;;;;41.53;24.87;;;;;;;4.13;79.37;101739.81;4976630;28;20507;-63
2022/03/25 06:19:17;;;;;;;47.67;30.03;;;;;;;4.15;78.49;101736.13;4975239;28;20272;-66
2022/03/25 06:21:43;;;;;;;45.63;29.13;;;;;;;4.09;78.82;101733.03;4975670;28;20050;-65
2022/03/25 06:24:08;;;;;;;48.83;29.47;;;;;;;4.04;79.13;101731.50;4975553;28;20745;-64
2022/03/25 06:26:37;;;;;;;43.97;28.97;;;;;;;4.08;79.06;101713.72;4976109;28;20130;-65
2022/03/25 06:29:05;;;;;;;42.67;27.08;;;;;;;4.22;79.09;101715.47;4978636;28;20070;-63
2022/03/25 06:31:31;;;;;;;47.25;29.60;;;;;;;4.42;78.70;101728.22;4961305;28;20057;-70
2022/03/25 06:33:56;;;;;;;50.53;29.57;;;;;;;4.52;77.78;101723.19;4975930;28;20046;-62
2022/03/25 06:36:22;;;;;;;44.13;28.70;;;;;;;4.51;78.59;101711.78;4975624;28;20074;-64
2022/03/25 06:38:48;;;;;;;54.47;30.57;;;;;;;4.56;77.80;101708.84;4975368;28;20070;-61
2022/03/25 06:41:14;;;;;;;48.20;29.93;;;;;;;4.66;78.44;101709.97;4958500;28;20034;-64
2022/03/25 06:43:40;;;;;;;43.17;29.80;;;;;;;4.76;77.57;101702.25;4942179;28;20277;-65
2022/03/25 06:46:06;;;;;;;50.67;31.00;;;;;;;4.89;77.19;101714.53;4975733;28;20027;-67
2022/03/25 06:48:32;;;;;;;49.60;30.13;;;;;;;4.69;77.10;101674.59;4975441;28;20035;-68
2022/03/25 06:51:01;;;;;;;48.13;30.73;;;;;;;4.89;76.47;101703.13;4975691;28;20039;-66
2022/03/25 06:53:27;;;;;;;;;;;;;;;4.85;77.23;101704.28;4975752;28;20765;-70
2022/03/25 06:55:53;;;;;;;50.17;30.90;;;;;;;4.75;78.08;101697.94;4975575;28;19929;-65
2022/03/25 06:58:19;;;;;;;56.87;32.33;;;;;;;4.64;78.24;101703.94;4975399;28;20042;-65
2022/03/25 07:00:45;;;;;;;46.97;32.33;;;;;;;4.60;78.20;101690.06;4975802;28;20682;-68
2022/03/25 07:03:11;;;;;;;48.37;31.20;;;;;;;4.58;78.23;101689.34;4976452;28;20129;-67
2022/03/25 07:05:37;;;;;;;47.40;29.80;;;;;;;4.68;77.96;101694.88;4974732;28;20361;-68
2022/03/25 07:08:07;;;;;;;50.07;29.70;;;;;;;4.60;78.32;101661.06;4957916;28;20034;-63
2022/03/25 07:10:33;;;;;;;48.93;29.00;;;;;;;4.82;78.24;101691.28;4974972;28;20746;-64
2022/03/25 07:12:59;;;;;;;47.10;30.20;;;;;;;4.93;78.00;101683.53;4974851;28;20852;-65
2022/03/25 07:15:25;;;;;;;49.93;31.17;;;;;;;5.00;78.37;101671.59;4957461;28;20277;-64
2022/03/25 07:17:52;;;;;;;41.40;27.87;;;;;;;5.03;78.10;101652.91;4956743;28;20047;-66
2022/03/25 07:20:19;;;;;;;44.13;29.93;;;;;;;5.18;76.85;101650.97;4975357;28;20054;-68
2022/03/25 07:22:48;;;;;;;47.70;28.97;;;;;;;5.33;76.19;101659.66;4975959;28;20274;-70
2022/03/25 07:25:14;;;;;;;39.45;27.63;;;;;;;5.50;75.86;101652.25;4975125;28;20329;-69
2022/03/25 07:27:42;;;;;;;38.83;26.23;;;;;;;5.67;75.91;101655.47;4974534;28;20054;-70
2022/03/25 07:30:09;;;;;;;48.03;29.95;;;;;;;5.74;75.96;101649.63;4957290;28;20802;-66
2022/03/25 07:32:35;;;;;;;42.90;29.20;;;;;;;5.62;76.16;101642.59;4958390;28;20137;-67
2022/03/25 07:35:02;;;;;;;48.33;31.07;;;;;;;5.67;75.44;101637.81;4974873;28;20298;-66
2022/03/25 07:41:15;;;;;;;38.43;26.47;;;;;;;6.02;75.17;101621.22;5498736;23;20057;-63
2022/03/25 07:43:40;;;;;;;40.67;26.63;;;;;;;6.15;73.89;101614.94;4974176;28;20282;-66
2022/03/25 07:46:06;;;;;;;58.43;28.73;;;;;;;6.32;73.51;101613.69;4941570;28;20638;-65
2022/03/25 07:48:32;;;;;;;42.43;28.00;;;;;;;6.33;73.82;101604.78;4974341;28;20044;-62
2022/03/25 07:50:58;;;;;;;47.83;27.43;;;;;;;6.38;73.01;101600.00;4940704;28;20050;-63
2022/03/25 07:53:24;;;;;;;39.30;25.57;;;;;;;6.40;72.64;101584.03;4957138;28;20042;-69
2022/03/25 07:55:53;;;;;;;44.23;27.53;;;;;;;6.49;72.48;101597.41;4974540;28;20093;-65
2022/03/25 07:58:21;;;;;;;40.67;26.13;;;;;;;6.53;72.29;101596.19;4957091;28;20031;-66
2022/03/25 08:00:51;;;;;;;40.63;25.80;;;;;;;6.52;72.57;101591.88;4974436;28;20585;-59
2022/03/25 08:03:18;;;;;;;35.77;24.43;;;;;;;6.43;71.99;101595.22;4974299;28;20066;-64
2022/03/25 08:05:44;;;;;;;37.27;25.67;;;;;;;6.44;72.39;101569.59;4973928;28;20085;-63
2022/03/25 08:08:28;;;;;;;38.07;23.43;;;;;;;6.77;71.04;101582.06;4974168;28;20039;-66
2022/03/25 08:10:56;;;;;;;45.47;29.10;;;;;;;6.91;70.65;101586.28;4974567;28;20034;-66
2022/03/25 08:13:24;;;;;;;45.43;25.07;;;;;;;6.91;71.15;101591.56;4956795;28;20035;-60
2022/03/25 08:15:50;;;;;;;40.05;23.42;;;;;;;6.79;71.37;101580.13;4974059;28;20035;-61
2022/03/25 08:18:18;;;;;;;37.83;21.53;;;;;;;6.78;71.47;101584.59;4974104;28;20050;-61
2022/03/25 08:20:47;;;;;;;33.28;22.55;;;;;;;6.82;70.75;101585.19;4956333;28;20066;-69
2022/03/25 08:28:52;;;;;;;39.23;25.70;;;;;;;6.94;69.77;101586.91;4973184;28;20345;-64
2022/03/25 08:31:18;;;;;;;31.80;23.40;;;;;;;6.76;70.26;101590.97;4973347;28;20039;-66
2022/03/25 08:33:44;;;;;;;32.33;23.73;;;;;;;6.59;71.60;101599.34;4974015;28;20049;-67
2022/03/25 08:36:10;;;;;;;40.13;24.87;;;;;;;6.42;71.70;101593.53;4973432;28;20154;-68
2022/03/25 08:38:36;;;;;;;36.60;23.10;;;;;;;6.34;72.41;101587.94;4973608;28;20031;-68
2022/03/25 08:41:04;;;;;;;38.13;24.70;;;;;;;6.35;72.41;101588.78;4973991;28;20541;-66
2022/03/25 08:43:32;;;;;;;27.27;21.05;;;;;;;6.34;71.51;101580.00;4956838;28;20532;-70
2022/03/25 08:46:22;;;;;;;34.10;22.60;;;;;;;6.37;71.56;101574.53;4975909;28;20065;-77
2022/03/25 08:48:48;;;;;;;33.13;21.03;;;;;;;6.41;71.88;101581.25;4973498;28;20134;-69
2022/03/25 08:51:14;;;;;;;35.57;20.97;;;;;;;6.47;71.16;101582.59;4973491;28;20174;-71
2022/03/25 08:53:40;;;;;;;39.97;25.53;;;;;;;6.51;71.26;101587.53;4956303;28;20043;-69
2022/03/25 08:56:06;;;;;;;39.23;24.37;;;;;;;6.44;71.69;101577.53;4974287;28;20459;-69
2022/03/25 08:58:31;;;;;;;32.13;23.27;;;;;;;6.37;72.11;101563.09;4974587;28;20550;-71
2022/03/25 09:00:58;;;;;;;33.50;23.23;;;;;;;6.37;72.19;101557.81;4940523;28;20047;-66
2022/03/25 09:03:23;;;;;;;40.63;24.63;;;;;;;6.38;72.61;101560.31;4974257;28;20516;-66
2022/03/25 09:05:49;;;;;;;44.60;25.37;;;;;;;6.46;72.25;101552.66;4973868;28;20027;-71
2022/03/25 09:08:15;;;;;;;38.73;24.77;;;;;;;6.57;72.30;101548.31;4974244;28;20064;-69
2022/03/25 09:10:41;;;;;;;36.63;23.97;;;;;;;6.63;71.32;101539.91;4957681;28;20042;-68
2022/03/25 09:13:07;;;;;;;35.00;24.23;;;;;;;6.69;71.65;101534.16;4974349;28;20409;-68
2022/03/25 09:15:33;;;;;;;44.83;24.37;;;;;;;6.63;71.59;101527.50;4973642;28;20042;-67
2022/03/25 09:17:58;;;;;;;35.47;24.20;;;;;;;6.60;71.78;101526.91;4955868;28;20031;-68
2022/03/25 09:20:25;;;;;;;39.57;24.43;;;;;;;6.60;72.21;101505.75;4973537;28;20387;-67
2022/03/25 09:22:53;;;;;;;38.43;23.83;;;;;;;6.66;71.94;101505.28;4973224;28;20062;-57
2022/03/25 09:25:19;;;;;;;39.17;25.05;;;;;;;6.72;71.22;101483.63;4972827;28;20494;-66
2022/03/25 09:27:45;;;;;;;31.40;22.13;;;;;;;6.97;71.93;101488.69;4972742;28;20073;-62
2022/03/25 09:30:11;;;;;;;36.83;25.10;;;;;;;7.19;70.41;101490.44;4973098;28;20458;-66
2022/03/25 09:32:37;;;;;;;32.67;22.60;;;;;;;7.32;70.28;101474.41;4973461;28;20070;-61
2022/03/25 09:35:08;;;;;;;35.50;21.90;;;;;;;7.58;68.71;101475.78;4973273;28;20069;-60
2022/03/25 09:37:35;;;;;;;36.10;22.67;;;;;;;7.54;68.77;101471.72;4973321;28;20453;-62
2022/03/25 09:40:03;;;;;;;37.90;23.80;;;;;;;7.44;69.04;101460.16;4974189;28;20041;-64
2022/03/25 09:42:33;;;;;;;34.88;23.38;;;;;;;7.40;68.88;101461.38;4959466;28;20055;-67
2022/03/25 09:45:01;;;;;;;37.20;23.57;;;;;;;7.44;69.56;101460.16;4961207;28;20047;-71
2022/03/25 09:47:30;;;;;;;36.73;24.00;;;;;;;7.52;69.62;101465.69;4960737;28;20409;-63
2022/03/25 09:49:56;;;;;;;35.97;23.23;;;;;;;7.54;68.58;101461.09;4976417;28;20031;-65
2022/03/25 09:52:23;;;;;;;35.43;22.87;;;;;;;7.63;69.10;101460.34;4959154;28;20126;-68
2022/03/25 09:54:48;;;;;;;38.73;21.73;;;;;;;7.69;68.13;101459.81;4976754;28;20045;-67
2022/03/25 09:57:13;;;;;;;31.43;21.43;;;;;;;7.71;68.40;101452.59;4977190;28;20121;-66
2022/03/25 09:59:39;;;;;;;32.37;22.60;;;;;;;7.62;68.66;101448.06;4959866;28;20035;-65
2022/03/25 10:02:04;;;;;;;34.23;20.93;;;;;;;7.47;68.84;101451.94;4959425;28;20473;-66
2022/03/25 10:04:45;;;;;;;31.87;22.17;;;;;;;7.44;69.76;101446.91;4959417;28;20045;-66
2022/03/25 10:07:24;;;;;;;30.73;21.80;;;;;;;7.45;69.67;101446.78;4943126;28;20039;-66
2022/03/25 10:10:10;;;;;;;33.97;21.47;;;;;;;7.53;69.77;101434.72;4977593;28;20043;-64
2022/03/25 10:12:39;;;;;;;37.03;21.70;;;;;;;7.51;69.28;101428.69;4977982;28;20046;-68
2022/03/25 10:15:23;;;;;;;31.80;21.10;;;;;;;7.64;69.58;101411.66;4977762;28;20409;-76
2022/03/25 10:17:55;;;;;;;33.03;22.07;;;;;;;7.80;68.10;101415.66;4945573;28;20113;-72
2022/03/25 10:20:34;;;;;;;33.77;21.70;;;;;;;7.75;68.83;101400.97;4960768;28;20121;-71
2022/03/25 10:23:17;;;;;;;34.60;22.07;;;;;;;7.80;68.07;101402.41;4959595;28;20062;-68
2022/03/25 10:25:51;;;;;;;31.17;20.63;;;;;;;7.83;68.50;101395.06;4959398;28;20035;-68
2022/03/25 10:28:40;;;;;;;36.03;20.70;;;;;;;7.91;68.47;101399.69;4976430;28;20478;-72
2022/03/25 10:31:17;;;;;;;28.10;19.43;;;;;;;7.89;68.39;101380.44;4958855;28;20093;-71
2022/03/25 10:33:52;;;;;;;28.73;18.73;;;;;;;7.91;68.25;101381.13;4959213;28;20561;-72
2022/03/25 10:36:20;;;;;;;29.17;18.87;;;;;;;7.82;67.65;101363.38;4976056;28;20035;-67
2022/03/25 10:38:55;;;;;;;31.52;18.25;;;;;;;7.89;68.78;101370.66;4975539;28;20031;-67
2022/03/25 10:41:23;;;;;;;26.90;17.73;;;;;;;7.95;68.33;101379.91;4976214;28;20055;-73
2022/03/25 10:43:59;;;;;;;23.30;17.90;;;;;;;7.98;68.17;101358.41;4976959;28;20039;-70
2022/03/25 10:46:39;;;;;;;24.73;17.10;;;;;;;8.13;67.39;101356.28;4959056;28;20510;-71
2022/03/25 10:49:18;;;;;;;39.07;18.27;;;;;;;8.16;67.46;101361.31;4943764;28;20071;-78
2022/03/25 10:51:50;;;;;;;;;;;;;;;8.18;67.25;101351.41;4943431;28;20395;-69
2022/03/25 10:54:16;;;;;;;27.47;17.17;;;;;;;8.06;67.73;101340.88;4958950;28;20026;-72
2022/03/25 10:56:45;;;;;;;27.43;17.67;;;;;;;7.99;68.27;101334.41;4958239;28;20086;-68
2022/03/25 10:59:20;;;;;;;;;;;;;;;8.05;67.91;101327.72;4958693;28;20414;-69
2022/03/25 11:01:47;;;;;;;25.50;18.00;;;;;;;7.98;67.47;101310.69;4957898;28;19981;-70
2022/03/25 11:04:14;;;;;;;30.20;18.33;;;;;;;8.07;68.43;101309.88;4926303;28;20066;-68
2022/03/25 11:06:39;;;;;;;24.67;16.63;;;;;;;8.19;67.74;101303.50;4977785;28;20043;-67
2022/03/25 11:09:08;;;;;;;30.10;17.60;;;;;;;8.23;67.24;101296.97;4975293;28;20406;-67
2022/03/25 11:11:34;;;;;;;25.45;16.17;;;;;;;8.12;67.31;101297.06;4974700;28;20413;-66
2022/03/25 11:14:00;;;;;;;24.20;16.17;;;;;;;7.98;68.27;101284.16;4974814;28;20045;-68
2022/03/25 11:16:26;;;;;;;36.13;19.50;;;;;;;7.72;69.05;101286.41;4974938;28;20039;-68
2022/03/25 11:18:53;;;;;;;26.23;17.80;;;;;;;7.65;69.32;101287.91;4974847;28;20058;-68
2022/03/25 11:21:21;;;;;;;25.53;16.23;;;;;;;7.65;69.69;101278.13;4957610;28;20039;-66
2022/03/25 11:23:52;;;;;;;28.23;16.38;;;;;;;7.68;69.47;101266.41;4975039;28;20189;-68
2022/03/25 11:26:22;;;;;;;29.93;17.20;;;;;;;7.47;69.57;101230.16;4957995;28;20536;-69
2022/03/25 11:28:53;;;;;;;34.73;18.17;;;;;;;7.66;69.59;101258.59;4941662;28;20128;-68
2022/03/25 11:31:18;;;;;;;31.57;18.17;;;;;;;7.70;69.26;101240.63;4957735;28;20083;-67